• Join FlightAware (Why Join?)
  • Login
  • US Flag 
02:35PM EST


 

Airport Tracker/Info


-or-


 

Live Flight TrackerFlight Track Log ✈ N770NC ✈ 14-Jun-2013 ✈ KATL - KIAD

Flight Track Log - Related Links

Times and Time Zones

All times are in EDT time to prevent confusion due to time zone crossing. See the N770NC flight status page for this flight to view local times or setup timezone preferences in your user account.

Time Position Orientation Groundspeed Altitude Reporting Facility
EDT Latitude Longitude Course Direction KTS MPH feet Rate Location/Type
12:20PM 33.6167 -84.5000 54° Northeast 232 267 3,300  Level Atlanta TRACON
12:21PM 33.5697 -84.5997 241° Southwest 320 368 6,000 2,100 Climbing Atlanta Center
12:22PM 33.7647 -84.0650 67° East  Level FlightAware Approximate
12:22PM 33.4758 -84.5892 175° South 309 356 8,100  Level Atlanta Center
12:23PM 33.8072 -83.9438 67° East  Level FlightAware Approximate
12:23PM 33.4531 -84.5019 107° East 269 310 10,300  Level Atlanta Center
12:24PM 33.8570 -83.8194 59° Northeast  Level FlightAware Approximate
12:24PM 33.4578 -84.3975 87° East 308 354 11,800  Level Atlanta Center
12:25PM 33.9203 -83.7121 54° Northeast  Level FlightAware Approximate
12:25PM 33.5122 -84.3028 55° Northeast 316 364 13,400  Level Atlanta Center
12:26PM 33.5625 -84.2058 58° Northeast 335 386 15,300 1,860 Climbing Atlanta Center
12:27PM 33.6147 -84.1036 58° Northeast 340 391 17,200 1,860 Climbing Atlanta Center
12:28PM 33.6669 -84.0014 58° Northeast 345 397 19,100 1,860 Climbing Atlanta Center
12:29PM 33.7233 -83.8989 56° Northeast 351 404 21,000 1,680 Climbing Atlanta Center
12:30PM 33.7711 -83.7964 61° Northeast 351 404 22,500 1,260 Climbing Atlanta Center
12:31PM 33.8250 -83.6886 59° Northeast 361 415 23,600 960 Climbing Atlanta Center
12:32PM 33.8706 -83.5936 60° Northeast 361 415 24,500 1,020 Climbing Atlanta Center
12:33PM 33.9350 -83.4881 54° Northeast 373 429 25,700 1,140 Climbing Atlanta Center
12:34PM 33.9969 -83.3847 54° Northeast 381 438 26,800 960 Climbing Atlanta Center
12:35PM 34.0592 -83.2764 55° Northeast 386 444 27,700 900 Climbing Atlanta Center
12:36PM 34.1314 -83.1806 48° Northeast 386 444 28,700 600 Climbing Atlanta Center
12:37PM 34.2058 -83.0767 49° Northeast 395 455 29,000 120 Climbing Atlanta Center
12:38PM 34.2800 -82.9703 50° Northeast 411 473 29,000  Level Atlanta Center
12:39PM 34.3647 -82.8586 47° Northeast 411 473 29,000  Level Atlanta Center
12:40PM 34.4408 -82.7492 50° Northeast 411 473 29,000  Level Atlanta Center
12:41PM 34.5211 -82.6444 47° Northeast 411 473 29,000  Level Atlanta Center
12:42PM 34.5931 -82.5550 46° Northeast 411 473 29,000  Level Atlanta Center
12:43PM 34.6689 -82.4453 50° Northeast 416 479 29,000  Level Atlanta Center
12:44PM 34.7531 -82.3372 47° Northeast 423 487 29,000  Level Atlanta Center
12:45PM 34.8328 -82.2319 47° Northeast 423 487 29,000  Level Atlanta Center
12:46PM 34.9061 -82.1164 52° Northeast 423 487 29,000  Level Atlanta Center
12:47PM 34.9836 -82.0056 50° Northeast 428 493 29,000  Level Atlanta Center
12:48PM 35.0525 -81.8822 56° Northeast 439 505 29,000  Level Atlanta Center
12:49PM 35.1297 -81.7608 52° Northeast 444 511 29,000  Level Atlanta Center
12:50PM 35.2106 -81.6289 53° Northeast 444 511 29,000 240 Level Atlanta Center
12:51PM 35.2725 -81.4922 61° Northeast 450 518 29,500 780 Climbing Atlanta Center
12:52PM 35.3322 -81.3606 61° Northeast 455 524 30,600 1,080 Climbing Atlanta Center
12:53PM 35.3942 -81.2311 60° Northeast 441 507 31,700 1,080 Climbing Atlanta Center
12:54PM 35.4536 -81.0992 61° Northeast 441 507 32,800 600 Climbing Atlanta Center
12:55PM 35.5131 -80.9719 60° Northeast 436 502 33,000 60 Climbing Atlanta Center
12:56PM 35.5725 -80.8447 60° Northeast 431 496 33,000  Level Atlanta Center
12:57PM 35.6400 -80.7244 55° Northeast 422 486 33,000  Level Atlanta Center
12:59PM 35.7581 -80.5244 54° Northeast 421 484 33,000  Level Washington Center
01:00PM 35.8317 -80.4061 52° Northeast 421 484 33,000  Level Washington Center
01:01PM 35.9033 -80.2847 54° Northeast 421 484 33,000  Level Washington Center
01:02PM 35.9789 -80.1686 51° Northeast 426 490 33,000  Level Washington Center
01:03PM 36.0453 -80.0644 52° Northeast 433 498 33,000  Level Washington Center
01:04PM 36.1128 -79.9294 58° Northeast 439 505 33,000  Level Washington Center
01:05PM 36.1864 -79.8022 54° Northeast 447 514 33,000 -600 Level Washington Center
01:06PM 36.2639 -79.6675 54° Northeast 442 509 31,900 -1,380 Descending Washington Center
01:07PM 36.3233 -79.5158 64° Northeast 458 527 30,300 -1,080 Descending Washington Center
01:08PM 36.3883 -79.3744 60° Northeast 472 543 29,800 -900 Descending Washington Center
01:09PM 36.4681 -79.2286 56° Northeast 485 558 28,600 -1,020 Descending Washington Center
01:10PM 36.5386 -79.1053 55° Northeast 491 565 27,800 -1,020 Descending Washington Center
01:11PM 36.6153 -78.9767 53° Northeast 474 545 26,600 -1,380 Descending Washington Center
01:12PM 36.6831 -78.8606 54° Northeast 443 510 25,100 -840 Descending Washington Center
01:13PM 36.7506 -78.7569 51° Northeast 409 471 25,000 -60 Descending Washington Center
01:14PM 36.8097 -78.6453 56° Northeast 393 452 25,000 -180 Level Washington Center
01:15PM 36.8797 -78.5261 54° Northeast 386 444 24,700 -540 Descending Washington Center
01:16PM 36.9342 -78.4294 55° Northeast 386 444 24,000 -840 Descending Washington Center
01:17PM 36.9542 -78.2794 80° East 381 438 23,100 -900 Descending Washington Center
01:18PM 36.9694 -78.1525 81° East 381 438 22,300 -600 Descending Washington Center
01:19PM 36.9803 -78.0411 83° East 369 425 22,000 -180 Descending Washington Center
01:20PM 37.0403 -77.9597 47° Northeast 321 369 22,000  Level Washington Center
01:21PM 37.1386 -77.9497 North 286 329 22,000  Level Washington Center
01:22PM 37.2561 -77.9089 15° North 352 405 22,000  Level Washington Center
01:23PM 37.3572 -77.8572 22° Northeast 375 432 22,000  Level Washington Center
01:24PM 37.4603 -77.8183 17° North 380 437 22,000 -120 Level Washington Center
01:25PM 37.5650 -77.7872 13° North 380 437 21,800 -1,320 Descending Washington Center
01:26PM 37.6639 -77.7483 17° North 380 437 19,400 -2,460 Descending Washington Center
01:27PM 37.7544 -77.6878 28° Northeast 370 426 16,900 -2,460 Descending Washington Center
01:28PM 37.8389 -77.6297 28° Northeast 357 411 14,600 -2,340 Descending Washington Center
01:29PM 37.9231 -77.5819 24° Northeast 339 390 12,300 -1,920 Descending Washington Center
01:30PM 38.0031 -77.5392 23° Northeast 318 366 10,700 -1,140 Descending Washington Center
01:31PM 38.0789 -77.5042 20° North 304 350 10,000 -360 Descending Washington Center
01:32PM 38.1483 -77.4636 25° Northeast 283 326 10,000 -120 Level Washington Center
01:33PM 38.2114 -77.4203 28° Northeast 269 310 9,800 -600 Descending Washington Center
01:34PM 38.2789 -77.3825 24° Northeast 255 293 8,800 -960 Descending Washington Center
01:35PM 38.3517 -77.3789 North 249 287 7,900 -960 Descending Washington Center
01:36PM 38.4208 -77.3700 North 249 287 6,900 -720 Descending Washington Center
01:37PM 38.4875 -77.3636 North 249 287 6,500 -840 Descending Washington Center
01:38PM 38.5606 -77.3653 359° North 249 287 5,200 -1,260 Descending Washington Center
01:39PM 38.6247 -77.3881 345° North 249 287 4,000 -780 Descending Washington Center
01:40PM 38.6500 -77.4167 319° Northwest 207 238 4,000 60 Level Potomac TRACON
01:41PM 38.7000 -77.4500 333° Northwest 182 209 4,100  Climbing Potomac TRACON
01:42PM 38.7500 -77.4667 345° North 179 206 4,000 -540 Descending Potomac TRACON
01:42PM 38.8000 -77.4667 360° North 191 220 3,100 -1,020 Descending Potomac TRACON